sensor_id;sensor_type;location;lat;lon;timestamp;P1;durP1;ratioP1;P2;durP2;ratioP2
50219;SDS011;36110;51.536;7.562;2023-05-16T00:01:08;15.10;;;11.20;;
50219;SDS011;36110;51.536;7.562;2023-05-16T00:03:34;10.30;;;9.23;;
50219;SDS011;36110;51.536;7.562;2023-05-16T00:06:00;11.20;;;9.93;;
50219;SDS011;36110;51.536;7.562;2023-05-16T00:08:26;6.10;;;5.50;;
50219;SDS011;36110;51.536;7.562;2023-05-16T00:10:52;5.45;;;4.95;;
50219;SDS011;36110;51.536;7.562;2023-05-16T00:13:17;10.40;;;8.57;;
50219;SDS011;36110;51.536;7.562;2023-05-16T00:15:49;6.13;;;5.55;;
50219;SDS011;36110;51.536;7.562;2023-05-16T00:20:42;6.68;;;5.97;;
50219;SDS011;36110;51.536;7.562;2023-05-16T00:23:08;5.10;;;4.60;;
50219;SDS011;36110;51.536;7.562;2023-05-16T00:25:33;6.30;;;5.53;;
50219;SDS011;36110;51.536;7.562;2023-05-16T00:27:59;6.75;;;5.65;;
50219;SDS011;36110;51.536;7.562;2023-05-16T00:30:24;7.63;;;5.45;;
50219;SDS011;36110;51.536;7.562;2023-05-16T00:32:49;5.03;;;4.53;;
50219;SDS011;36110;51.536;7.562;2023-05-16T00:35:15;5.53;;;5.03;;
50219;SDS011;36110;51.536;7.562;2023-05-16T00:37:40;4.38;;;3.97;;
50219;SDS011;36110;51.536;7.562;2023-05-16T00:40:06;4.70;;;4.25;;
50219;SDS011;36110;51.536;7.562;2023-05-16T00:42:32;7.43;;;6.53;;
50219;SDS011;36110;51.536;7.562;2023-05-16T00:44:57;4.13;;;3.83;;
50219;SDS011;36110;51.536;7.562;2023-05-16T00:47:22;4.28;;;3.92;;
50219;SDS011;36110;51.536;7.562;2023-05-16T00:49:48;4.32;;;3.85;;
50219;SDS011;36110;51.536;7.562;2023-05-16T00:52:13;4.05;;;3.75;;
50219;SDS011;36110;51.536;7.562;2023-05-16T00:54:39;4.18;;;3.88;;
50219;SDS011;36110;51.536;7.562;2023-05-16T00:57:05;5.22;;;4.72;;
50219;SDS011;36110;51.536;7.562;2023-05-16T00:59:30;4.53;;;4.13;;
50219;SDS011;36110;51.536;7.562;2023-05-16T01:01:56;6.18;;;3.75;;
50219;SDS011;36110;51.536;7.562;2023-05-16T01:04:22;4.30;;;4.00;;
50219;SDS011;36110;51.536;7.562;2023-05-16T01:06:47;5.05;;;4.55;;
50219;SDS011;36110;51.536;7.562;2023-05-16T01:09:12;8.75;;;4.55;;
50219;SDS011;36110;51.536;7.562;2023-05-16T01:14:26;4.35;;;3.47;;
50219;SDS011;36110;51.536;7.562;2023-05-16T01:17:01;4.65;;;3.97;;
50219;SDS011;36110;51.536;7.562;2023-05-16T01:19:54;4.90;;;3.72;;
50219;SDS011;36110;51.536;7.562;2023-05-16T01:22:28;3.70;;;3.40;;
50219;SDS011;36110;51.536;7.562;2023-05-16T01:25:20;9.52;;;4.75;;
50219;SDS011;36110;51.536;7.562;2023-05-16T01:28:04;4.88;;;4.13;;
50219;SDS011;36110;51.536;7.562;2023-05-16T01:30:38;4.75;;;4.10;;
50219;SDS011;36110;51.536;7.562;2023-05-16T01:33:05;4.10;;;3.80;;
50219;SDS011;36110;51.536;7.562;2023-05-16T01:35:31;3.80;;;3.50;;
50219;SDS011;36110;51.536;7.562;2023-05-16T01:38:04;3.55;;;3.25;;
50219;SDS011;36110;51.536;7.562;2023-05-16T01:40:41;5.15;;;4.07;;
50219;SDS011;36110;51.536;7.562;2023-05-16T01:43:10;3.92;;;3.53;;
50219;SDS011;36110;51.536;7.562;2023-05-16T01:45:40;4.22;;;3.92;;
50219;SDS011;36110;51.536;7.562;2023-05-16T01:48:21;4.13;;;3.83;;
50219;SDS011;36110;51.536;7.562;2023-05-16T01:50:49;3.75;;;3.22;;
50219;SDS011;36110;51.536;7.562;2023-05-16T01:53:19;2.90;;;2.63;;
50219;SDS011;36110;51.536;7.562;2023-05-16T01:55:48;2.53;;;1.90;;
50219;SDS011;36110;51.536;7.562;2023-05-16T01:58:16;3.22;;;2.92;;
50219;SDS011;36110;51.536;7.562;2023-05-16T02:00:44;4.78;;;2.92;;
50219;SDS011;36110;51.536;7.562;2023-05-16T02:03:09;3.33;;;3.03;;
50219;SDS011;36110;51.536;7.562;2023-05-16T02:05:35;3.53;;;1.80;;
50219;SDS011;36110;51.536;7.562;2023-05-16T02:08:00;3.67;;;2.53;;
50219;SDS011;36110;51.536;7.562;2023-05-16T02:10:26;4.00;;;3.67;;
50219;SDS011;36110;51.536;7.562;2023-05-16T02:12:51;6.15;;;3.20;;
50219;SDS011;36110;51.536;7.562;2023-05-16T02:15:17;5.15;;;2.97;;
50219;SDS011;36110;51.536;7.562;2023-05-16T02:17:42;3.40;;;3.05;;
50219;SDS011;36110;51.536;7.562;2023-05-16T02:20:08;3.80;;;3.33;;
50219;SDS011;36110;51.536;7.562;2023-05-16T02:22:34;3.35;;;3.05;;
50219;SDS011;36110;51.536;7.562;2023-05-16T02:25:00;3.38;;;3.08;;
50219;SDS011;36110;51.536;7.562;2023-05-16T02:27:27;12.65;;;2.90;;
50219;SDS011;36110;51.536;7.562;2023-05-16T02:29:52;10.52;;;3.47;;
50219;SDS011;36110;51.536;7.562;2023-05-16T02:32:18;5.90;;;3.10;;
50219;SDS011;36110;51.536;7.562;2023-05-16T02:34:43;7.45;;;2.80;;
50219;SDS011;36110;51.536;7.562;2023-05-16T02:37:08;12.20;;;3.05;;
50219;SDS011;36110;51.536;7.562;2023-05-16T02:39:34;3.75;;;3.35;;
50219;SDS011;36110;51.536;7.562;2023-05-16T02:41:59;11.35;;;3.15;;
50219;SDS011;36110;51.536;7.562;2023-05-16T02:44:24;8.73;;;3.30;;
50219;SDS011;36110;51.536;7.562;2023-05-16T02:46:50;4.57;;;3.05;;
50219;SDS011;36110;51.536;7.562;2023-05-16T02:49:15;3.63;;;2.75;;
50219;SDS011;36110;51.536;7.562;2023-05-16T02:51:41;3.22;;;2.92;;
50219;SDS011;36110;51.536;7.562;2023-05-16T02:54:06;2.53;;;2.33;;
50219;SDS011;36110;51.536;7.562;2023-05-16T02:56:33;2.80;;;2.50;;
50219;SDS011;36110;51.536;7.562;2023-05-16T02:58:59;3.75;;;2.50;;
50219;SDS011;36110;51.536;7.562;2023-05-16T03:01:25;2.85;;;2.60;;
50219;SDS011;36110;51.536;7.562;2023-05-16T03:03:50;6.07;;;3.00;;
50219;SDS011;36110;51.536;7.562;2023-05-16T03:06:15;8.40;;;2.85;;
50219;SDS011;36110;51.536;7.562;2023-05-16T03:08:41;3.47;;;2.50;;
50219;SDS011;36110;51.536;7.562;2023-05-16T03:11:06;2.50;;;2.30;;
50219;SDS011;36110;51.536;7.562;2023-05-16T03:13:32;2.65;;;2.45;;
50219;SDS011;36110;51.536;7.562;2023-05-16T03:15:57;3.53;;;2.50;;
50219;SDS011;36110;51.536;7.562;2023-05-16T03:18:22;3.22;;;2.10;;
50219;SDS011;36110;51.536;7.562;2023-05-16T03:20:48;3.45;;;2.70;;
50219;SDS011;36110;51.536;7.562;2023-05-16T03:23:13;2.97;;;2.25;;
50219;SDS011;36110;51.536;7.562;2023-05-16T03:25:38;2.60;;;2.28;;
50219;SDS011;36110;51.536;7.562;2023-05-16T03:28:04;6.60;;;2.55;;
50219;SDS011;36110;51.536;7.562;2023-05-16T03:30:31;2.45;;;2.25;;
50219;SDS011;36110;51.536;7.562;2023-05-16T03:32:57;2.13;;;1.92;;
50219;SDS011;36110;51.536;7.562;2023-05-16T03:35:22;5.05;;;2.33;;
50219;SDS011;36110;51.536;7.562;2023-05-16T03:37:48;4.85;;;2.65;;
50219;SDS011;36110;51.536;7.562;2023-05-16T03:40:14;4.13;;;2.50;;
50219;SDS011;36110;51.536;7.562;2023-05-16T03:42:39;2.90;;;2.67;;
50219;SDS011;36110;51.536;7.562;2023-05-16T03:45:04;5.68;;;2.40;;
50219;SDS011;36110;51.536;7.562;2023-05-16T03:47:30;2.42;;;2.13;;
50219;SDS011;36110;51.536;7.562;2023-05-16T03:49:56;3.47;;;2.90;;
50219;SDS011;36110;51.536;7.562;2023-05-16T03:52:22;3.30;;;2.38;;
50219;SDS011;36110;51.536;7.562;2023-05-16T03:54:47;3.00;;;2.28;;
50219;SDS011;36110;51.536;7.562;2023-05-16T03:57:12;2.35;;;2.15;;
50219;SDS011;36110;51.536;7.562;2023-05-16T03:59:38;2.67;;;1.85;;
50219;SDS011;36110;51.536;7.562;2023-05-16T04:02:05;3.45;;;2.28;;
50219;SDS011;36110;51.536;7.562;2023-05-16T04:04:30;2.92;;;2.25;;
50219;SDS011;36110;51.536;7.562;2023-05-16T04:06:56;10.60;;;3.05;;
50219;SDS011;36110;51.536;7.562;2023-05-16T04:09:21;10.02;;;2.83;;
50219;SDS011;36110;51.536;7.562;2023-05-16T04:11:46;14.30;;;3.40;;
50219;SDS011;36110;51.536;7.562;2023-05-16T04:14:12;4.97;;;2.45;;
50219;SDS011;36110;51.536;7.562;2023-05-16T04:16:38;5.63;;;2.28;;
50219;SDS011;36110;51.536;7.562;2023-05-16T04:19:03;9.45;;;2.60;;
50219;SDS011;36110;51.536;7.562;2023-05-16T04:21:28;2.90;;;2.10;;
50219;SDS011;36110;51.536;7.562;2023-05-16T04:23:54;2.53;;;2.10;;
50219;SDS011;36110;51.536;7.562;2023-05-16T04:26:19;4.40;;;2.30;;
50219;SDS011;36110;51.536;7.562;2023-05-16T04:28:46;4.20;;;2.42;;
50219;SDS011;36110;51.536;7.562;2023-05-16T04:31:11;6.10;;;2.25;;
50219;SDS011;36110;51.536;7.562;2023-05-16T04:33:38;10.38;;;3.03;;
50219;SDS011;36110;51.536;7.562;2023-05-16T04:36:03;8.40;;;2.83;;
50219;SDS011;36110;51.536;7.562;2023-05-16T04:38:29;3.58;;;2.17;;
50219;SDS011;36110;51.536;7.562;2023-05-16T04:40:55;8.07;;;2.95;;
50219;SDS011;36110;51.536;7.562;2023-05-16T04:43:21;15.18;;;3.20;;
50219;SDS011;36110;51.536;7.562;2023-05-16T04:45:47;3.33;;;2.30;;
50219;SDS011;36110;51.536;7.562;2023-05-16T04:48:12;7.18;;;2.25;;
50219;SDS011;36110;51.536;7.562;2023-05-16T04:50:39;5.95;;;2.30;;
50219;SDS011;36110;51.536;7.562;2023-05-16T04:53:04;9.85;;;3.03;;
50219;SDS011;36110;51.536;7.562;2023-05-16T04:55:30;3.75;;;2.28;;
50219;SDS011;36110;51.536;7.562;2023-05-16T04:57:55;3.83;;;2.05;;
50219;SDS011;36110;51.536;7.562;2023-05-16T05:00:20;2.22;;;1.60;;
50219;SDS011;36110;51.536;7.562;2023-05-16T05:02:46;17.88;;;3.58;;
50219;SDS011;36110;51.536;7.562;2023-05-16T05:05:11;4.80;;;2.08;;
50219;SDS011;36110;51.536;7.562;2023-05-16T05:07:36;4.53;;;2.10;;
50219;SDS011;36110;51.536;7.562;2023-05-16T05:10:02;14.32;;;3.00;;
50219;SDS011;36110;51.536;7.562;2023-05-16T05:12:27;20.80;;;3.60;;
50219;SDS011;36110;51.536;7.562;2023-05-16T05:14:53;10.75;;;2.60;;
50219;SDS011;36110;51.536;7.562;2023-05-16T05:17:19;11.43;;;3.53;;
50219;SDS011;36110;51.536;7.562;2023-05-16T05:19:45;6.57;;;2.13;;
50219;SDS011;36110;51.536;7.562;2023-05-16T05:22:11;6.18;;;2.58;;
50219;SDS011;36110;51.536;7.562;2023-05-16T05:24:36;3.28;;;2.00;;
50219;SDS011;36110;51.536;7.562;2023-05-16T05:27:02;3.20;;;2.10;;
50219;SDS011;36110;51.536;7.562;2023-05-16T05:29:27;10.05;;;2.88;;
50219;SDS011;36110;51.536;7.562;2023-05-16T05:31:53;4.63;;;2.08;;
50219;SDS011;36110;51.536;7.562;2023-05-16T05:34:18;14.55;;;3.17;;
50219;SDS011;36110;51.536;7.562;2023-05-16T05:36:44;14.57;;;3.45;;
50219;SDS011;36110;51.536;7.562;2023-05-16T05:39:09;18.23;;;3.22;;
50219;SDS011;36110;51.536;7.562;2023-05-16T05:41:34;14.70;;;3.50;;
50219;SDS011;36110;51.536;7.562;2023-05-16T05:44:00;16.27;;;3.72;;
50219;SDS011;36110;51.536;7.562;2023-05-16T05:46:26;15.57;;;3.80;;
50219;SDS011;36110;51.536;7.562;2023-05-16T05:48:51;13.32;;;3.72;;
50219;SDS011;36110;51.536;7.562;2023-05-16T05:51:16;14.63;;;3.13;;
50219;SDS011;36110;51.536;7.562;2023-05-16T05:53:42;13.10;;;3.13;;
50219;SDS011;36110;51.536;7.562;2023-05-16T05:56:07;14.60;;;3.28;;
50219;SDS011;36110;51.536;7.562;2023-05-16T05:58:33;10.18;;;2.72;;
50219;SDS011;36110;51.536;7.562;2023-05-16T06:00:58;16.35;;;3.10;;
50219;SDS011;36110;51.536;7.562;2023-05-16T06:03:24;12.18;;;3.35;;
50219;SDS011;36110;51.536;7.562;2023-05-16T06:05:49;14.75;;;3.67;;
50219;SDS011;36110;51.536;7.562;2023-05-16T06:08:14;15.57;;;3.15;;
50219;SDS011;36110;51.536;7.562;2023-05-16T06:10:40;12.40;;;3.83;;
50219;SDS011;36110;51.536;7.562;2023-05-16T06:13:05;13.52;;;3.10;;
50219;SDS011;36110;51.536;7.562;2023-05-16T06:15:30;13.85;;;2.50;;
50219;SDS011;36110;51.536;7.562;2023-05-16T06:17:56;12.25;;;2.88;;
50219;SDS011;36110;51.536;7.562;2023-05-16T06:20:22;13.70;;;3.45;;
50219;SDS011;36110;51.536;7.562;2023-05-16T06:22:47;11.35;;;3.50;;
50219;SDS011;36110;51.536;7.562;2023-05-16T06:25:12;12.43;;;2.70;;
50219;SDS011;36110;51.536;7.562;2023-05-16T06:27:38;9.77;;;2.65;;
50219;SDS011;36110;51.536;7.562;2023-05-16T06:30:03;13.52;;;3.15;;
50219;SDS011;36110;51.536;7.562;2023-05-16T06:32:29;25.45;;;4.07;;
50219;SDS011;36110;51.536;7.562;2023-05-16T06:34:54;15.30;;;2.75;;
50219;SDS011;36110;51.536;7.562;2023-05-16T06:37:20;16.25;;;3.28;;
50219;SDS011;36110;51.536;7.562;2023-05-16T06:39:47;14.93;;;3.17;;
50219;SDS011;36110;51.536;7.562;2023-05-16T06:42:12;17.67;;;3.10;;
50219;SDS011;36110;51.536;7.562;2023-05-16T06:44:38;18.38;;;2.97;;
50219;SDS011;36110;51.536;7.562;2023-05-16T06:47:03;19.42;;;2.95;;
50219;SDS011;36110;51.536;7.562;2023-05-16T06:49:29;16.15;;;3.10;;
50219;SDS011;36110;51.536;7.562;2023-05-16T06:51:54;12.63;;;2.63;;
50219;SDS011;36110;51.536;7.562;2023-05-16T06:54:19;12.30;;;2.83;;
50219;SDS011;36110;51.536;7.562;2023-05-16T06:56:45;12.48;;;3.38;;
50219;SDS011;36110;51.536;7.562;2023-05-16T06:59:11;13.68;;;2.90;;
50219;SDS011;36110;51.536;7.562;2023-05-16T07:01:36;24.98;;;3.42;;
50219;SDS011;36110;51.536;7.562;2023-05-16T07:04:01;16.73;;;2.85;;
50219;SDS011;36110;51.536;7.562;2023-05-16T07:06:27;10.98;;;2.53;;
50219;SDS011;36110;51.536;7.562;2023-05-16T07:08:52;15.32;;;2.97;;
50219;SDS011;36110;51.536;7.562;2023-05-16T07:11:17;12.55;;;3.00;;
50219;SDS011;36110;51.536;7.562;2023-05-16T07:13:42;15.05;;;2.92;;
50219;SDS011;36110;51.536;7.562;2023-05-16T07:16:08;11.80;;;2.67;;
50219;SDS011;36110;51.536;7.562;2023-05-16T07:18:33;13.88;;;2.85;;
50219;SDS011;36110;51.536;7.562;2023-05-16T07:20:58;14.43;;;2.70;;
50219;SDS011;36110;51.536;7.562;2023-05-16T07:23:24;11.65;;;2.80;;
50219;SDS011;36110;51.536;7.562;2023-05-16T07:25:49;7.45;;;2.40;;
50219;SDS011;36110;51.536;7.562;2023-05-16T07:28:15;9.20;;;2.35;;
50219;SDS011;36110;51.536;7.562;2023-05-16T07:30:41;11.57;;;2.90;;
50219;SDS011;36110;51.536;7.562;2023-05-16T07:33:06;13.32;;;2.65;;
50219;SDS011;36110;51.536;7.562;2023-05-16T07:35:31;17.35;;;3.30;;
50219;SDS011;36110;51.536;7.562;2023-05-16T07:37:57;9.10;;;2.53;;
50219;SDS011;36110;51.536;7.562;2023-05-16T07:40:22;9.40;;;2.50;;
50219;SDS011;36110;51.536;7.562;2023-05-16T07:42:53;11.35;;;2.40;;
50219;SDS011;36110;51.536;7.562;2023-05-16T07:45:18;7.82;;;2.10;;
50219;SDS011;36110;51.536;7.562;2023-05-16T07:47:44;10.55;;;2.55;;
50219;SDS011;36110;51.536;7.562;2023-05-16T07:50:09;13.40;;;1.95;;
50219;SDS011;36110;51.536;7.562;2023-05-16T07:52:35;8.02;;;1.90;;
50219;SDS011;36110;51.536;7.562;2023-05-16T07:55:00;11.15;;;2.70;;
50219;SDS011;36110;51.536;7.562;2023-05-16T07:57:26;8.75;;;2.35;;
50219;SDS011;36110;51.536;7.562;2023-05-16T07:59:51;11.68;;;2.28;;
50219;SDS011;36110;51.536;7.562;2023-05-16T08:02:17;12.00;;;2.30;;
50219;SDS011;36110;51.536;7.562;2023-05-16T08:04:42;12.05;;;2.33;;
50219;SDS011;36110;51.536;7.562;2023-05-16T08:07:08;7.05;;;1.90;;
50219;SDS011;36110;51.536;7.562;2023-05-16T08:09:33;8.25;;;1.95;;
50219;SDS011;36110;51.536;7.562;2023-05-16T08:11:59;7.25;;;2.08;;
50219;SDS011;36110;51.536;7.562;2023-05-16T08:14:27;9.73;;;2.10;;
50219;SDS011;36110;51.536;7.562;2023-05-16T08:16:54;11.00;;;2.30;;
50219;SDS011;36110;51.536;7.562;2023-05-16T08:19:19;6.88;;;2.20;;
50219;SDS011;36110;51.536;7.562;2023-05-16T08:21:45;8.77;;;2.22;;
50219;SDS011;36110;51.536;7.562;2023-05-16T08:24:10;9.73;;;2.25;;
50219;SDS011;36110;51.536;7.562;2023-05-16T08:26:36;6.80;;;2.08;;
50219;SDS011;36110;51.536;7.562;2023-05-16T08:29:01;9.40;;;2.55;;
50219;SDS011;36110;51.536;7.562;2023-05-16T08:31:26;8.65;;;1.70;;
50219;SDS011;36110;51.536;7.562;2023-05-16T08:33:52;10.85;;;2.33;;
50219;SDS011;36110;51.536;7.562;2023-05-16T08:36:17;12.20;;;2.33;;
50219;SDS011;36110;51.536;7.562;2023-05-16T08:38:44;8.52;;;2.20;;
50219;SDS011;36110;51.536;7.562;2023-05-16T08:41:09;8.20;;;2.00;;
50219;SDS011;36110;51.536;7.562;2023-05-16T08:43:34;6.50;;;2.00;;
50219;SDS011;36110;51.536;7.562;2023-05-16T08:46:00;7.75;;;1.80;;
50219;SDS011;36110;51.536;7.562;2023-05-16T08:48:26;9.02;;;2.03;;
50219;SDS011;36110;51.536;7.562;2023-05-16T08:50:52;9.57;;;2.03;;
50219;SDS011;36110;51.536;7.562;2023-05-16T08:53:20;4.80;;;1.83;;
50219;SDS011;36110;51.536;7.562;2023-05-16T08:55:46;7.25;;;2.42;;
50219;SDS011;36110;51.536;7.562;2023-05-16T08:58:12;6.07;;;1.75;;
50219;SDS011;36110;51.536;7.562;2023-05-16T09:00:38;8.43;;;2.35;;
50219;SDS011;36110;51.536;7.562;2023-05-16T09:03:04;6.95;;;2.00;;
50219;SDS011;36110;51.536;7.562;2023-05-16T09:05:29;8.90;;;1.67;;
50219;SDS011;36110;51.536;7.562;2023-05-16T09:07:55;9.00;;;2.30;;
50219;SDS011;36110;51.536;7.562;2023-05-16T09:10:21;8.77;;;2.38;;
50219;SDS011;36110;51.536;7.562;2023-05-16T09:12:46;8.73;;;1.92;;
50219;SDS011;36110;51.536;7.562;2023-05-16T09:15:11;5.25;;;1.40;;
50219;SDS011;36110;51.536;7.562;2023-05-16T09:17:38;7.00;;;1.75;;
50219;SDS011;36110;51.536;7.562;2023-05-16T09:20:16;6.40;;;1.75;;
50219;SDS011;36110;51.536;7.562;2023-05-16T09:22:52;6.00;;;1.50;;
50219;SDS011;36110;51.536;7.562;2023-05-16T09:25:22;6.78;;;2.03;;
50219;SDS011;36110;51.536;7.562;2023-05-16T09:27:53;3.05;;;1.45;;
50219;SDS011;36110;51.536;7.562;2023-05-16T09:30:26;8.85;;;1.90;;
50219;SDS011;36110;51.536;7.562;2023-05-16T09:32:55;4.43;;;1.80;;
50219;SDS011;36110;51.536;7.562;2023-05-16T09:35:21;5.28;;;1.60;;
50219;SDS011;36110;51.536;7.562;2023-05-16T09:37:48;7.63;;;1.55;;
50219;SDS011;36110;51.536;7.562;2023-05-16T09:40:14;4.68;;;1.60;;
50219;SDS011;36110;51.536;7.562;2023-05-16T09:42:39;7.00;;;2.30;;
50219;SDS011;36110;51.536;7.562;2023-05-16T09:45:05;5.05;;;1.67;;
50219;SDS011;36110;51.536;7.562;2023-05-16T09:47:33;5.75;;;1.70;;
50219;SDS011;36110;51.536;7.562;2023-05-16T09:49:59;7.97;;;1.88;;
50219;SDS011;36110;51.536;7.562;2023-05-16T09:52:28;5.47;;;1.75;;
50219;SDS011;36110;51.536;7.562;2023-05-16T09:54:53;4.13;;;1.60;;
50219;SDS011;36110;51.536;7.562;2023-05-16T09:57:19;8.98;;;1.70;;
50219;SDS011;36110;51.536;7.562;2023-05-16T09:59:45;6.65;;;1.77;;
50219;SDS011;36110;51.536;7.562;2023-05-16T10:02:11;8.90;;;1.58;;
50219;SDS011;36110;51.536;7.562;2023-05-16T10:04:37;6.25;;;1.75;;
50219;SDS011;36110;51.536;7.562;2023-05-16T10:07:02;4.13;;;1.38;;
50219;SDS011;36110;51.536;7.562;2023-05-16T10:09:30;5.85;;;1.63;;
50219;SDS011;36110;51.536;7.562;2023-05-16T10:11:57;12.15;;;1.60;;
50219;SDS011;36110;51.536;7.562;2023-05-16T10:14:27;5.60;;;1.70;;
50219;SDS011;36110;51.536;7.562;2023-05-16T10:16:52;5.35;;;1.42;;
50219;SDS011;36110;51.536;7.562;2023-05-16T10:19:19;4.18;;;1.15;;
50219;SDS011;36110;51.536;7.562;2023-05-16T10:21:47;4.32;;;1.48;;
50219;SDS011;36110;51.536;7.562;2023-05-16T10:24:17;5.85;;;1.58;;
50219;SDS011;36110;51.536;7.562;2023-05-16T10:26:46;4.90;;;1.88;;
50219;SDS011;36110;51.536;7.562;2023-05-16T10:29:12;9.65;;;2.08;;
50219;SDS011;36110;51.536;7.562;2023-05-16T10:31:38;5.40;;;2.28;;
50219;SDS011;36110;51.536;7.562;2023-05-16T10:34:03;5.90;;;2.20;;
50219;SDS011;36110;51.536;7.562;2023-05-16T10:36:28;7.05;;;1.67;;
50219;SDS011;36110;51.536;7.562;2023-05-16T10:38:55;8.15;;;2.53;;
50219;SDS011;36110;51.536;7.562;2023-05-16T10:41:21;7.13;;;2.30;;
50219;SDS011;36110;51.536;7.562;2023-05-16T10:43:55;7.65;;;2.08;;
50219;SDS011;36110;51.536;7.562;2023-05-16T10:46:22;7.32;;;2.25;;
50219;SDS011;36110;51.536;7.562;2023-05-16T10:48:47;9.20;;;2.03;;
50219;SDS011;36110;51.536;7.562;2023-05-16T10:53:51;8.55;;;1.90;;
50219;SDS011;36110;51.536;7.562;2023-05-16T10:56:21;5.45;;;1.77;;
50219;SDS011;36110;51.536;7.562;2023-05-16T10:58:47;9.80;;;2.22;;
50219;SDS011;36110;51.536;7.562;2023-05-16T11:06:21;4.20;;;1.80;;
50219;SDS011;36110;51.536;7.562;2023-05-16T11:11:38;5.57;;;1.48;;
50219;SDS011;36110;51.536;7.562;2023-05-16T11:17:08;5.90;;;1.63;;
50219;SDS011;36110;51.536;7.562;2023-05-16T11:19:44;5.75;;;2.00;;
50219;SDS011;36110;51.536;7.562;2023-05-16T11:24:51;7.05;;;1.58;;
50219;SDS011;36110;51.536;7.562;2023-05-16T11:27:22;4.95;;;2.00;;
50219;SDS011;36110;51.536;7.562;2023-05-16T11:30:11;4.60;;;1.25;;
50219;SDS011;36110;51.536;7.562;2023-05-16T11:32:39;5.35;;;1.85;;
50219;SDS011;36110;51.536;7.562;2023-05-16T11:35:06;5.05;;;1.70;;
50219;SDS011;36110;51.536;7.562;2023-05-16T11:37:32;4.80;;;1.73;;
50219;SDS011;36110;51.536;7.562;2023-05-16T11:40:00;5.28;;;1.88;;
50219;SDS011;36110;51.536;7.562;2023-05-16T11:42:34;3.55;;;1.50;;
50219;SDS011;36110;51.536;7.562;2023-05-16T11:45:04;5.40;;;1.80;;
50219;SDS011;36110;51.536;7.562;2023-05-16T11:47:30;5.03;;;1.65;;
50219;SDS011;36110;51.536;7.562;2023-05-16T11:49:58;5.07;;;1.90;;
50219;SDS011;36110;51.536;7.562;2023-05-16T11:52:24;6.20;;;1.60;;
50219;SDS011;36110;51.536;7.562;2023-05-16T11:54:50;3.92;;;1.50;;
50219;SDS011;36110;51.536;7.562;2023-05-16T11:57:15;5.32;;;1.70;;
50219;SDS011;36110;51.536;7.562;2023-05-16T11:59:41;4.07;;;1.20;;
50219;SDS011;36110;51.536;7.562;2023-05-16T12:02:06;4.72;;;1.83;;
50219;SDS011;36110;51.536;7.562;2023-05-16T12:04:33;3.35;;;1.50;;
50219;SDS011;36110;51.536;7.562;2023-05-16T12:06:59;4.50;;;1.92;;
50219;SDS011;36110;51.536;7.562;2023-05-16T12:09:25;5.32;;;1.80;;
50219;SDS011;36110;51.536;7.562;2023-05-16T12:11:51;4.65;;;2.00;;
50219;SDS011;36110;51.536;7.562;2023-05-16T12:14:16;5.47;;;1.67;;
50219;SDS011;36110;51.536;7.562;2023-05-16T12:16:42;5.75;;;1.77;;
50219;SDS011;36110;51.536;7.562;2023-05-16T12:19:10;6.32;;;1.60;;
50219;SDS011;36110;51.536;7.562;2023-05-16T12:21:36;6.55;;;1.90;;
50219;SDS011;36110;51.536;7.562;2023-05-16T12:24:02;8.25;;;1.65;;
50219;SDS011;36110;51.536;7.562;2023-05-16T12:26:28;4.43;;;1.30;;
50219;SDS011;36110;51.536;7.562;2023-05-16T12:29:02;7.40;;;1.80;;
50219;SDS011;36110;51.536;7.562;2023-05-16T12:31:29;3.63;;;1.50;;
50219;SDS011;36110;51.536;7.562;2023-05-16T12:33:56;5.93;;;1.65;;
50219;SDS011;36110;51.536;7.562;2023-05-16T12:36:21;3.13;;;1.40;;
50219;SDS011;36110;51.536;7.562;2023-05-16T12:38:48;4.15;;;1.70;;
50219;SDS011;36110;51.536;7.562;2023-05-16T12:41:17;5.28;;;1.33;;
50219;SDS011;36110;51.536;7.562;2023-05-16T12:43:43;3.15;;;1.30;;
50219;SDS011;36110;51.536;7.562;2023-05-16T12:46:09;6.47;;;1.50;;
50219;SDS011;36110;51.536;7.562;2023-05-16T12:48:36;2.75;;;1.20;;
50219;SDS011;36110;51.536;7.562;2023-05-16T12:51:10;7.07;;;1.88;;
50219;SDS011;36110;51.536;7.562;2023-05-16T12:53:44;2.70;;;1.13;;
50219;SDS011;36110;51.536;7.562;2023-05-16T12:56:11;4.25;;;1.70;;
50219;SDS011;36110;51.536;7.562;2023-05-16T12:58:37;4.18;;;1.52;;
50219;SDS011;36110;51.536;7.562;2023-05-16T13:01:03;4.07;;;1.40;;
50219;SDS011;36110;51.536;7.562;2023-05-16T13:03:29;12.35;;;1.95;;
50219;SDS011;36110;51.536;7.562;2023-05-16T13:05:55;5.20;;;3.38;;
50219;SDS011;36110;51.536;7.562;2023-05-16T13:08:20;6.95;;;2.25;;
50219;SDS011;36110;51.536;7.562;2023-05-16T13:10:46;15.77;;;2.20;;
50219;SDS011;36110;51.536;7.562;2023-05-16T13:13:11;5.22;;;1.60;;
50219;SDS011;36110;51.536;7.562;2023-05-16T13:15:36;3.38;;;1.70;;
50219;SDS011;36110;51.536;7.562;2023-05-16T13:18:02;8.32;;;2.00;;
50219;SDS011;36110;51.536;7.562;2023-05-16T13:20:27;6.70;;;1.65;;
50219;SDS011;36110;51.536;7.562;2023-05-16T13:22:53;4.97;;;1.35;;
50219;SDS011;36110;51.536;7.562;2023-05-16T13:25:19;3.47;;;1.20;;
50219;SDS011;36110;51.536;7.562;2023-05-16T13:27:45;4.60;;;1.40;;
50219;SDS011;36110;51.536;7.562;2023-05-16T13:30:10;4.05;;;1.25;;
50219;SDS011;36110;51.536;7.562;2023-05-16T13:32:35;4.68;;;1.33;;
50219;SDS011;36110;51.536;7.562;2023-05-16T13:35:01;5.28;;;1.30;;
50219;SDS011;36110;51.536;7.562;2023-05-16T13:37:28;3.20;;;1.30;;
50219;SDS011;36110;51.536;7.562;2023-05-16T13:39:53;4.70;;;1.70;;
50219;SDS011;36110;51.536;7.562;2023-05-16T13:42:19;2.85;;;1.10;;
50219;SDS011;36110;51.536;7.562;2023-05-16T13:44:45;5.13;;;1.30;;
50219;SDS011;36110;51.536;7.562;2023-05-16T13:47:10;4.13;;;1.20;;
50219;SDS011;36110;51.536;7.562;2023-05-16T13:49:36;5.78;;;1.73;;
50219;SDS011;36110;51.536;7.562;2023-05-16T13:52:01;10.55;;;1.48;;
50219;SDS011;36110;51.536;7.562;2023-05-16T13:54:27;5.30;;;1.25;;
50219;SDS011;36110;51.536;7.562;2023-05-16T13:56:52;5.05;;;1.30;;
50219;SDS011;36110;51.536;7.562;2023-05-16T13:59:18;4.65;;;1.20;;
50219;SDS011;36110;51.536;7.562;2023-05-16T14:01:43;5.60;;;1.10;;
50219;SDS011;36110;51.536;7.562;2023-05-16T14:04:09;7.97;;;1.38;;
50219;SDS011;36110;51.536;7.562;2023-05-16T14:06:34;5.32;;;1.50;;
50219;SDS011;36110;51.536;7.562;2023-05-16T14:08:59;5.72;;;1.25;;
50219;SDS011;36110;51.536;7.562;2023-05-16T14:11:25;4.47;;;1.10;;
50219;SDS011;36110;51.536;7.562;2023-05-16T14:13:54;3.45;;;1.27;;
50219;SDS011;36110;51.536;7.562;2023-05-16T14:16:20;6.20;;;1.83;;
50219;SDS011;36110;51.536;7.562;2023-05-16T14:18:45;4.40;;;1.00;;
50219;SDS011;36110;51.536;7.562;2023-05-16T14:21:11;3.05;;;1.50;;
50219;SDS011;36110;51.536;7.562;2023-05-16T14:23:37;2.05;;;1.10;;
50219;SDS011;36110;51.536;7.562;2023-05-16T14:26:03;6.20;;;1.50;;
50219;SDS011;36110;51.536;7.562;2023-05-16T14:28:28;3.50;;;1.05;;
50219;SDS011;36110;51.536;7.562;2023-05-16T14:30:54;3.47;;;0.80;;
50219;SDS011;36110;51.536;7.562;2023-05-16T14:33:20;5.15;;;1.42;;
50219;SDS011;36110;51.536;7.562;2023-05-16T14:35:45;3.22;;;1.00;;
50219;SDS011;36110;51.536;7.562;2023-05-16T14:38:13;3.92;;;1.30;;
50219;SDS011;36110;51.536;7.562;2023-05-16T14:40:38;4.18;;;1.50;;
50219;SDS011;36110;51.536;7.562;2023-05-16T14:43:04;5.00;;;1.25;;
50219;SDS011;36110;51.536;7.562;2023-05-16T14:45:29;3.88;;;1.25;;
50219;SDS011;36110;51.536;7.562;2023-05-16T14:47:55;5.70;;;1.33;;
50219;SDS011;36110;51.536;7.562;2023-05-16T14:50:20;3.08;;;1.35;;
50219;SDS011;36110;51.536;7.562;2023-05-16T14:52:45;3.35;;;1.20;;
50219;SDS011;36110;51.536;7.562;2023-05-16T14:55:11;3.90;;;1.45;;
50219;SDS011;36110;51.536;7.562;2023-05-16T14:57:36;4.45;;;1.30;;
50219;SDS011;36110;51.536;7.562;2023-05-16T15:00:02;4.40;;;1.58;;
50219;SDS011;36110;51.536;7.562;2023-05-16T15:02:28;4.93;;;1.30;;